Sandgate, Vermont
Current Conditions -  °F | °C
As of 6:54 AM on Thursday 23 Oct 2014 (Local Time) from KDDH Reporting Station
Moderate Rain Moderate Rain  
Wind Chill: 41°   Ceiling: 1100
Heat Index: 44°   Visibility: 4mi
Dew Point: 41°   Wind: 6mph
Humidity: 89%   Direction: 320°NW
Pressure: 29.83"   Gusts: NA
Location:  43.1041°N, 73.154°W
Report Text: KDDH 231054Z AUTO 32005KT 4SM RA BR OVC011 07/05 A2983 RMK AO2 SLP105 P0014 T00670050
Loading
Personal Weather Stations






























Interactive Weather Map
Tropical Storm Tracking
New forecast layout! Learn more

10-Day Weather Forecast

Advertisements
Track Severe Weather on mobile